Time;durP1;ratioP1;P1;durP2;ratioP2;P2;SDS_P1;SDS_P2;PMS_P1;PMS_P2;Temp;Humidity;BMP_temperature;BMP_pressure;BME280_temperature;BME280_humidity;BME280_pressure;Samples;Min_cycle;Max_cycle;Signal;HPM_P1;HPM_P2
2023/07/25 00:01:15;;;;;;;2.88;1.10;;;;;;;-142.75;100.00;76115.59;5091167;28;20154;-65
2023/07/25 00:03:41;;;;;;;3.72;1.02;;;;;;;-142.75;100.00;76113.63;5091434;28;20028;-65
2023/07/25 00:06:06;;;;;;;5.93;1.30;;;;;;;-142.75;100.00;76123.47;5091306;28;20028;-65
2023/07/25 00:08:32;;;;;;;8.40;1.88;;;;;;;-142.75;100.00;76115.59;5091208;28;20036;-65
2023/07/25 00:10:58;;;;;;;4.97;1.33;;;;;;;-142.75;100.00;76119.53;5079374;28;20028;-65
2023/07/25 00:13:23;;;;;;;2.72;1.15;;;;;;;-142.75;100.00;76117.56;5071070;28;20023;-65
2023/07/25 00:15:50;;;;;;;4.03;1.20;;;;;;;-142.75;100.00;76113.63;5071084;28;20047;-65
2023/07/25 00:18:16;;;;;;;3.60;1.23;;;;;;;-142.75;100.00;76117.56;5070971;28;20044;-65
2023/07/25 00:20:42;;;;;;;5.63;1.10;;;;;;;-142.75;100.00;76121.50;5070541;28;20526;-66
2023/07/25 00:23:07;;;;;;;9.75;1.90;;;;;;;-142.75;100.00;76125.44;5080289;28;20051;-65
2023/07/25 00:25:33;;;;;;;5.47;1.45;;;;;;;-142.75;100.00;76121.50;5091249;28;20023;-66
2023/07/25 00:27:58;;;;;;;5.90;1.27;;;;;;;-142.75;100.00;76121.50;5091255;28;20020;-65
2023/07/25 00:30:24;;;;;;;2.30;1.33;;;;;;;-142.75;100.00;76129.38;5074985;28;20025;-65
2023/07/25 00:32:49;;;;;;;6.00;1.50;;;;;;;-142.75;100.00;76125.44;5070771;28;20021;-66
2023/07/25 00:35:15;;;;;;;6.13;1.00;;;;;;;-142.75;100.00;76117.56;5070627;28;20078;-65
2023/07/25 00:37:40;;;;;;;7.15;1.27;;;;;;;-142.75;100.00;76125.44;5070510;28;20480;-65
2023/07/25 00:40:06;;;;;;;4.95;1.33;;;;;;;-142.75;100.00;76121.50;5070176;28;20024;-64
2023/07/25 00:42:31;;;;;;;8.32;1.50;;;;;;;-142.75;100.00;76117.56;5070363;28;20055;-65
2023/07/25 00:44:57;;;;;;;5.70;1.27;;;;;;;-142.75;100.00;76113.63;5070477;28;20020;-65
2023/07/25 00:47:23;;;;;;;7.00;1.15;;;;;;;-142.75;100.00;76113.63;5068550;28;20516;-65
2023/07/25 00:49:50;;;;;;;4.82;1.52;;;;;;;-142.75;100.00;76107.72;5070258;28;20020;-65
2023/07/25 00:52:16;;;;;;;5.35;0.90;;;;;;;-142.75;100.00;76109.69;5069927;28;20112;-65
2023/07/25 00:54:47;;;;;;;3.75;0.98;;;;;;;-142.75;100.00;76105.75;5070293;28;20023;-65
2023/07/25 00:57:13;;;;;;;2.85;1.10;;;;;;;-142.75;100.00;76125.44;5070333;28;20579;-65
2023/07/25 00:59:38;;;;;;;3.55;1.13;;;;;;;-142.75;100.00;76127.41;5070096;28;20020;-65
2023/07/25 01:02:04;;;;;;;5.65;1.30;;;;;;;-142.75;100.00;76123.47;5069999;28;20093;-65
2023/07/25 01:04:30;;;;;;;3.83;1.23;;;;;;;-142.75;100.00;76131.34;5073402;28;20107;-65
2023/07/25 01:06:56;;;;;;;6.47;1.27;;;;;;;-142.75;100.00;76127.41;5090098;28;20107;-65
2023/07/25 01:09:35;;;;;;;5.40;1.20;;;;;;;-142.75;100.00;76113.63;5072953;28;20043;-65
2023/07/25 01:12:01;;;;;;;5.13;1.10;;;;;;;-142.75;100.00;76127.41;5069702;28;20036;-65
2023/07/25 01:14:27;;;;;;;4.95;1.20;;;;;;;-142.75;100.00;76133.31;5069812;28;20024;-65
2023/07/25 01:16:53;;;;;;;7.28;1.33;;;;;;;-142.75;100.00;76135.28;5069789;28;20036;-65
2023/07/25 01:19:20;;;;;;;2.50;1.00;;;;;;;-142.75;100.00;76137.25;5087024;28;20027;-65
2023/07/25 01:21:46;;;;;;;3.17;1.00;;;;;;;-142.75;100.00;76145.13;5089490;28;20031;-65
2023/07/25 01:24:11;;;;;;;7.78;1.45;;;;;;;-142.75;100.00;76141.19;5088649;28;20506;-65
2023/07/25 01:26:37;;;;;;;7.60;1.48;;;;;;;-142.75;100.00;76137.25;5089791;28;20059;-65
2023/07/25 01:29:02;;;;;;;2.97;1.08;;;;;;;-142.75;100.00;76137.25;5089741;28;20031;-65
2023/07/25 01:31:27;;;;;;;4.43;1.23;;;;;;;-142.75;100.00;76133.31;5089545;28;20086;-65
2023/07/25 01:33:53;;;;;;;4.47;1.15;;;;;;;-142.75;100.00;76141.19;5088774;28;20099;-65
2023/07/25 01:36:18;;;;;;;7.85;1.80;;;;;;;-142.75;100.00;76137.25;5089980;28;20020;-65
2023/07/25 01:38:43;;;;;;;6.85;1.88;;;;;;;-142.75;100.00;76129.38;5088355;28;20063;-65
2023/07/25 01:41:08;;;;;;;3.33;1.45;;;;;;;-142.75;100.00;76129.38;5089211;28;20028;-65
2023/07/25 01:43:34;;;;;;;5.90;1.48;;;;;;;-142.75;100.00;76117.56;5088975;28;20028;-64
2023/07/25 01:45:59;;;;;;;7.85;1.42;;;;;;;-142.75;100.00;76117.56;5089479;28;20055;-65
2023/07/25 01:48:24;;;;;;;5.55;1.50;;;;;;;-142.75;100.00;76107.72;5089198;28;20451;-65
2023/07/25 01:50:50;;;;;;;7.25;1.90;;;;;;;-142.75;100.00;76099.84;5088976;28;20103;-65
2023/07/25 01:53:15;;;;;;;4.90;1.52;;;;;;;-142.75;100.00;76095.91;5088526;28;20102;-65
2023/07/25 01:55:41;;;;;;;3.90;1.20;;;;;;;-142.75;100.00;76093.94;5089156;28;20103;-65
2023/07/25 01:58:06;;;;;;;5.00;1.30;;;;;;;-142.75;100.00;76091.97;5088528;28;20020;-65
2023/07/25 02:00:31;;;;;;;4.15;1.20;;;;;;;-142.75;100.00;76090.00;5088940;28;20118;-65
2023/07/25 02:02:57;;;;;;;4.97;2.03;;;;;;;-142.75;100.00;76093.94;5085156;28;20020;-65
2023/07/25 02:05:22;;;;;;;4.40;1.40;;;;;;;-142.75;100.00;76088.03;5068041;28;20020;-65
2023/07/25 02:07:47;;;;;;;5.93;1.60;;;;;;;-142.75;100.00;76086.06;5068633;28;20576;-65
2023/07/25 02:10:14;;;;;;;4.97;1.63;;;;;;;-142.75;100.00;76088.03;5070972;28;20116;-65
2023/07/25 02:12:39;;;;;;;12.27;1.75;;;;;;;-142.75;100.00;76090.00;5089071;28;20387;-65
2023/07/25 02:15:05;;;;;;;3.67;1.42;;;;;;;-142.75;100.00;76086.06;5088177;28;20020;-64
2023/07/25 02:17:30;;;;;;;3.15;1.20;;;;;;;-142.75;100.00;76095.91;5088234;28;20055;-65
2023/07/25 02:19:56;;;;;;;3.58;1.20;;;;;;;-142.75;100.00;76093.94;5080664;28;20103;-65
2023/07/25 02:22:21;;;;;;;5.00;1.38;;;;;;;-142.75;100.00;76090.00;5082577;28;20028;-66
2023/07/25 02:24:46;;;;;;;5.05;1.58;;;;;;;-142.75;100.00;76090.00;5088805;28;20590;-65
2023/07/25 02:27:12;;;;;;;3.13;1.35;;;;;;;-142.75;100.00;76097.88;5088228;28;20048;-65
2023/07/25 02:29:37;;;;;;;4.20;1.33;;;;;;;-142.75;100.00;76099.84;5088437;28;20031;-65
2023/07/25 02:32:03;;;;;;;7.05;1.52;;;;;;;-142.75;100.00;76095.91;5088386;28;20028;-65
2023/07/25 02:34:28;;;;;;;3.42;1.33;;;;;;;-142.75;100.00;76101.81;5088091;28;20028;-65
2023/07/25 02:36:53;;;;;;;3.05;1.23;;;;;;;-142.75;100.00;76090.00;5088601;28;20038;-65
2023/07/25 02:39:19;;;;;;;7.85;1.23;;;;;;;-142.75;100.00;76078.19;5087133;28;20032;-65
2023/07/25 02:41:44;;;;;;;5.68;1.63;;;;;;;-142.75;100.00;76072.31;5088200;28;20031;-65
2023/07/25 02:44:09;;;;;;;8.15;1.33;;;;;;;-142.75;100.00;76064.44;5084599;28;20056;-65
2023/07/25 02:46:35;;;;;;;5.20;1.25;;;;;;;-142.75;100.00;76060.50;5085843;28;20056;-65
2023/07/25 02:49:00;;;;;;;2.30;0.88;;;;;;;-142.75;100.00;76054.59;5087385;28;20086;-65
2023/07/25 02:51:25;;;;;;;5.90;1.20;;;;;;;-142.75;100.00;76050.66;5088197;28;20055;-65
2023/07/25 02:53:51;;;;;;;6.97;1.40;;;;;;;-142.75;100.00;76052.63;5088452;28;20024;-65
2023/07/25 02:56:16;;;;;;;3.83;1.35;;;;;;;-142.75;100.00;76042.78;5088391;28;20036;-65
2023/07/25 02:58:41;;;;;;;5.22;1.23;;;;;;;-142.75;100.00;76036.88;5088182;28;20153;-65
2023/07/25 03:01:07;;;;;;;5.78;1.13;;;;;;;-142.75;100.00;76034.91;5088024;28;20024;-65
2023/07/25 03:03:32;;;;;;;3.40;1.50;;;;;;;-142.75;100.00;76030.97;5088304;28;20034;-65
2023/07/25 03:05:57;;;;;;;7.30;1.50;;;;;;;-142.75;100.00;76021.13;5088396;28;20395;-65
2023/07/25 03:08:23;;;;;;;5.70;1.15;;;;;;;-142.75;100.00;76021.13;5088161;28;20032;-65
2023/07/25 03:10:48;;;;;;;6.82;1.20;;;;;;;-142.75;100.00;76023.09;5090867;28;20024;-65
2023/07/25 03:13:13;;;;;;;5.15;1.70;;;;;;;-142.75;100.00;76019.16;5091104;28;20578;-65
2023/07/25 03:15:39;;;;;;;5.07;1.17;;;;;;;-142.75;100.00;76005.38;5072147;28;20028;-65
2023/07/25 03:18:04;;;;;;;6.65;1.25;;;;;;;-142.75;100.00;75999.47;5085760;28;20150;-66
2023/07/25 03:20:30;;;;;;;9.18;1.33;;;;;;;-142.75;100.00;76015.22;5092233;28;20499;-66
2023/07/25 03:22:55;;;;;;;5.80;1.50;;;;;;;-142.75;100.00;76027.03;5092219;28;20028;-66
2023/07/25 03:25:20;;;;;;;5.75;1.35;;;;;;;-142.75;100.00;76023.09;5091966;28;20491;-66
2023/07/25 03:27:46;;;;;;;12.35;2.28;;;;;;;-142.75;100.00;76007.34;5091973;28;20507;-66
2023/07/25 03:30:11;;;;;;;4.35;1.05;;;;;;;-142.75;100.00;76019.16;5091811;28;20024;-66
2023/07/25 03:32:37;;;;;;;6.28;1.40;;;;;;;-142.75;100.00;76019.16;5090710;28;20479;-65
2023/07/25 03:35:02;;;;;;;7.78;1.08;;;;;;;-142.75;100.00;76007.34;5092033;28;20047;-65
2023/07/25 03:37:28;;;;;;;3.50;1.00;;;;;;;-142.75;100.00;76005.38;5091715;28;20070;-66
2023/07/25 03:39:53;;;;;;;4.75;1.27;;;;;;;-142.75;100.00;76009.31;5091826;28;20027;-66
2023/07/25 03:42:18;;;;;;;7.22;1.27;;;;;;;-142.75;100.00;75991.59;5091365;28;20536;-65
2023/07/25 03:44:44;;;;;;;6.72;1.35;;;;;;;-142.75;100.00;75987.66;5091796;28;20552;-65
2023/07/25 03:47:09;;;;;;;2.67;1.00;;;;;;;-142.75;100.00;75981.75;5091330;28;20042;-66
2023/07/25 03:49:34;;;;;;;5.32;1.30;;;;;;;-142.75;100.00;75977.81;5081310;28;20032;-66
2023/07/25 03:52:00;;;;;;;8.13;1.27;;;;;;;-142.75;100.00;75975.84;5071282;28;20074;-65
2023/07/25 03:54:25;;;;;;;9.18;2.08;;;;;;;-142.75;100.00;75962.09;5071278;28;20114;-65
2023/07/25 03:56:51;;;;;;;6.55;1.55;;;;;;;-142.75;100.00;75960.13;5071352;28;20032;-65
2023/07/25 03:59:17;;;;;;;8.27;1.25;;;;;;;-142.75;100.00;75956.19;5071391;28;20056;-65
2023/07/25 04:01:43;;;;;;;12.23;1.33;;;;;;;-142.75;100.00;75960.13;5071095;28;20505;-66
2023/07/25 04:04:08;;;;;;;11.07;1.33;;;;;;;-142.75;100.00;75946.34;5071048;28;20103;-65
2023/07/25 04:06:33;;;;;;;6.60;1.60;;;;;;;-142.75;100.00;75952.25;5071298;28;20086;-65
2023/07/25 04:08:59;;;;;;;7.75;1.30;;;;;;;-142.75;100.00;75952.25;5071065;28;20028;-65
2023/07/25 04:11:24;;;;;;;3.65;1.27;;;;;;;-142.75;100.00;75952.25;5070793;28;20043;-65
2023/07/25 04:13:49;;;;;;;6.47;1.75;;;;;;;-142.75;100.00;75944.38;5070997;28;20036;-66
2023/07/25 04:16:15;;;;;;;5.40;1.35;;;;;;;-142.75;100.00;75962.09;5070900;28;20276;-65
2023/07/25 04:18:40;;;;;;;4.38;1.05;;;;;;;-142.75;100.00;75960.13;5070962;28;20440;-65
2023/07/25 04:21:05;;;;;;;5.60;1.27;;;;;;;-142.75;100.00;75950.28;5069918;28;20109;-66
2023/07/25 04:23:31;;;;;;;5.55;1.20;;;;;;;-142.75;100.00;75962.09;5070849;28;20515;-65
2023/07/25 04:25:56;;;;;;;5.75;1.60;;;;;;;-142.75;100.00;75952.25;5070848;28;20499;-65
2023/07/25 04:28:21;;;;;;;5.30;1.40;;;;;;;-142.75;100.00;75967.97;5070697;28;20063;-65
2023/07/25 04:30:47;;;;;;;4.07;1.25;;;;;;;-142.75;100.00;75960.13;5070560;28;20039;-65
2023/07/25 04:33:12;;;;;;;5.45;1.58;;;;;;;-142.75;100.00;75958.16;5070935;28;20038;-65
2023/07/25 04:35:37;;;;;;;8.60;1.35;;;;;;;-142.75;100.00;75948.31;5070766;28;20024;-65
2023/07/25 04:38:02;;;;;;;7.07;1.30;;;;;;;-142.75;100.00;75948.31;5070539;28;20116;-65
2023/07/25 04:40:28;;;;;;;4.57;1.70;;;;;;;-142.75;100.00;75942.41;5086163;28;20035;-65
2023/07/25 04:42:54;;;;;;;4.28;1.10;;;;;;;-142.75;100.00;75940.44;5090395;28;20077;-65
2023/07/25 04:45:20;;;;;;;5.88;1.70;;;;;;;-142.75;100.00;75952.25;5090608;28;20032;-65
2023/07/25 04:47:45;;;;;;;8.40;1.05;;;;;;;-142.75;100.00;75950.28;5090219;28;20119;-66
2023/07/25 04:50:10;;;;;;;7.32;1.08;;;;;;;-142.75;100.00;75946.34;5090240;28;20441;-66
2023/07/25 04:52:36;;;;;;;6.20;1.33;;;;;;;-142.75;100.00;75940.44;5090386;28;20555;-66
2023/07/25 04:55:01;;;;;;;4.10;1.52;;;;;;;-142.75;100.00;75932.56;5090408;28;20129;-65
2023/07/25 04:57:27;;;;;;;10.20;1.40;;;;;;;-142.75;100.00;75918.78;5090285;28;20071;-65
2023/07/25 04:59:53;;;;;;;8.00;1.27;;;;;;;-142.75;100.00;75920.75;5090081;28;20039;-65
2023/07/25 05:02:22;;;;;;;4.78;1.42;;;;;;;-142.75;100.00;75906.97;5089893;28;20386;-65
2023/07/25 05:04:47;;;;;;;7.30;1.65;;;;;;;-142.75;100.00;75932.56;5090157;28;20035;-65
2023/07/25 05:07:14;;;;;;;5.03;1.33;;;;;;;-142.75;100.00;75912.88;5090230;28;20384;-65
2023/07/25 05:09:39;;;;;;;2.75;1.25;;;;;;;-142.75;100.00;75912.88;5089331;28;20551;-65
2023/07/25 05:12:05;;;;;;;7.80;1.60;;;;;;;-142.75;100.00;75895.16;5072856;28;20032;-65
2023/07/25 05:14:31;;;;;;;6.75;1.48;;;;;;;-142.75;100.00;75899.09;5073963;28;20027;-65
2023/07/25 05:16:56;;;;;;;5.40;1.45;;;;;;;-142.75;100.00;75895.16;5075458;28;20059;-65
2023/07/25 05:19:22;;;;;;;9.18;1.58;;;;;;;-142.75;100.00;75903.03;5075790;28;20479;-66
2023/07/25 05:21:47;;;;;;;3.67;1.02;;;;;;;-142.75;100.00;75906.97;5076441;28;20029;-64
2023/07/25 05:24:14;;;;;;;3.55;1.33;;;;;;;-142.75;100.00;75928.63;5077855;28;20442;-65
2023/07/25 05:26:40;;;;;;;8.45;1.42;;;;;;;-142.75;100.00;75920.75;5076515;28;20487;-65
2023/07/25 05:29:06;;;;;;;5.32;1.50;;;;;;;-142.75;100.00;75928.63;5069719;28;20036;-66
2023/07/25 05:31:31;;;;;;;3.65;1.02;;;;;;;-142.75;100.00;75934.53;5069046;28;20144;-65
2023/07/25 05:33:56;;;;;;;5.35;1.15;;;;;;;-142.75;100.00;75926.66;5070994;28;20032;-65
2023/07/25 05:36:21;;;;;;;5.32;1.35;;;;;;;-142.75;100.00;75928.63;5073212;28;20101;-65
2023/07/25 05:38:47;;;;;;;4.35;1.10;;;;;;;-142.75;100.00;75916.81;5069984;28;20027;-67
2023/07/25 05:41:12;;;;;;;6.43;1.30;;;;;;;-142.75;100.00;75914.84;5068996;28;20048;-66
2023/07/25 05:43:37;;;;;;;7.38;1.30;;;;;;;-142.75;100.00;75928.63;5069282;28;20112;-66
2023/07/25 05:46:03;;;;;;;7.32;0.70;;;;;;;-142.75;100.00;75936.50;5069944;28;20485;-66
2023/07/25 05:48:28;;;;;;;4.72;1.00;;;;;;;-142.75;100.00;75962.09;5069155;28;20553;-66
2023/07/25 05:50:54;;;;;;;5.22;0.90;;;;;;;-142.75;100.00;75954.22;5068706;28;20028;-66
2023/07/25 05:53:19;;;;;;;4.38;0.77;;;;;;;-142.75;100.00;75973.88;5068276;28;20028;-68
2023/07/25 05:55:45;;;;;;;4.85;0.70;;;;;;;-142.75;100.00;75952.25;5071630;28;20021;-66
2023/07/25 05:58:14;;;;;;;6.05;0.88;;;;;;;-142.75;100.00;75964.03;5079725;28;20024;-66
2023/07/25 06:00:40;;;;;;;7.20;1.15;;;;;;;-142.75;100.00;75981.75;5077255;28;20032;-66
2023/07/25 06:03:05;;;;;;;7.32;0.80;;;;;;;-142.75;100.00;75971.91;5078733;28;20031;-65
2023/07/25 06:05:31;;;;;;;6.55;1.25;;;;;;;-142.75;100.00;75954.22;5082572;28;20448;-66
2023/07/25 06:07:56;;;;;;;5.20;1.02;;;;;;;-142.75;100.00;75928.63;5084251;28;20507;-66
2023/07/25 06:10:21;;;;;;;2.53;1.00;;;;;;;-142.75;100.00;75924.69;5077967;28;20035;-66
2023/07/25 06:12:47;;;;;;;7.55;1.10;;;;;;;-142.75;100.00;75887.28;5079697;28;20395;-65
2023/07/25 06:15:12;;;;;;;8.73;2.03;;;;;;;-142.75;100.00;75881.38;5075135;28;20114;-66
2023/07/25 06:17:37;;;;;;;5.05;0.80;;;;;;;-142.75;100.00;75873.50;5083889;28;20023;-66
2023/07/25 06:20:03;;;;;;;6.28;1.08;;;;;;;-142.75;100.00;75897.13;5081707;28;20103;-65
2023/07/25 06:22:28;;;;;;;3.45;0.75;;;;;;;-142.75;100.00;75855.81;5079451;28;20055;-66
2023/07/25 06:24:54;;;;;;;4.05;0.88;;;;;;;-142.75;100.00;75845.97;5080030;28;20152;-66
2023/07/25 06:27:19;;;;;;;8.10;1.00;;;;;;;-142.75;100.00;75857.78;5083802;28;20039;-66
2023/07/25 06:29:44;;;;;;;1.73;0.65;;;;;;;-142.75;100.00;75830.22;5080533;28;20031;-66
2023/07/25 06:32:10;;;;;;;4.10;0.90;;;;;;;-142.75;100.00;75828.25;5083539;28;20027;-66
2023/07/25 06:34:35;;;;;;;3.47;0.80;;;;;;;-142.75;100.00;75796.75;5078773;28;20016;-66
2023/07/25 06:37:01;;;;;;;5.80;1.10;;;;;;;-142.75;100.00;75818.41;5082429;28;20036;-66
2023/07/25 06:39:26;;;;;;;4.35;0.73;;;;;;;-142.75;100.00;75794.78;5083031;28;20408;-66
2023/07/25 06:41:51;;;;;;;4.05;0.75;;;;;;;-142.75;100.00;75790.84;5075923;28;20032;-66
2023/07/25 06:44:19;;;;;;;3.25;0.63;;;;;;;-142.75;100.00;75798.72;5081055;28;20063;-66
2023/07/25 06:46:44;;;;;;;5.50;1.30;;;;;;;-142.75;100.00;75806.59;5082179;28;20056;-66
2023/07/25 06:49:09;;;;;;;8.30;1.15;;;;;;;-142.75;100.00;75790.84;5078076;28;20020;-67
2023/07/25 06:51:35;;;;;;;6.40;1.55;;;;;;;-142.75;100.00;75763.28;5071878;28;20069;-66
2023/07/25 06:54:00;;;;;;;4.25;1.10;;;;;;;-142.75;100.00;75720.00;5073018;28;20028;-66
2023/07/25 06:56:25;;;;;;;5.13;1.05;;;;;;;-142.75;100.00;75718.03;5067144;28;20116;-67
2023/07/25 06:58:51;;;;;;;6.43;0.80;;;;;;;-142.75;100.00;75712.13;5068039;28;20022;-67
2023/07/25 07:01:16;;;;;;;8.50;1.00;;;;;;;-142.75;100.00;75692.44;5067963;28;20063;-67
2023/07/25 07:03:41;;;;;;;4.03;0.88;;;;;;;-142.75;100.00;75660.97;5068278;28;20040;-66
2023/07/25 07:06:07;;;;;;;3.38;0.73;;;;;;;-142.75;100.00;75662.94;5068221;28;20063;-66
2023/07/25 07:08:32;;;;;;;6.18;0.73;;;;;;;-142.75;100.00;75662.94;5084567;28;20067;-67
2023/07/25 07:10:57;;;;;;;3.17;0.75;;;;;;;-142.75;100.00;75678.66;5074791;28;20074;-62
2023/07/25 07:13:23;;;;;;;5.72;1.30;;;;;;;-142.75;100.00;75690.47;5068806;28;20102;-67
2023/07/25 07:15:49;;;;;;;4.22;1.00;;;;;;;-142.75;100.00;75678.66;5086992;28;20027;-67
2023/07/25 07:18:15;;;;;;;6.13;0.88;;;;;;;-142.75;100.00;75684.56;5087766;28;20391;-67
2023/07/25 07:20:46;;;;;;;3.38;0.50;;;;;;;-142.75;100.00;75706.22;5087177;28;20036;-67
2023/07/25 07:23:11;;;;;;;4.88;1.15;;;;;;;-142.75;100.00;75727.88;5088097;28;20040;-67
2023/07/25 07:25:38;;;;;;;5.15;1.02;;;;;;;-142.75;100.00;75708.19;5088120;28;20020;-67
2023/07/25 07:28:04;;;;;;;6.25;0.68;;;;;;;-142.75;100.00;75739.69;5076318;28;20037;-67
2023/07/25 07:30:29;;;;;;;6.43;0.65;;;;;;;-142.75;100.00;75753.47;5073957;28;20035;-67
2023/07/25 07:32:56;;;;;;;2.70;0.47;;;;;;;-142.75;100.00;75735.75;5074685;28;20070;-67
2023/07/25 07:35:21;;;;;;;4.10;0.68;;;;;;;-142.75;100.00;75729.84;5067796;28;20070;-67
2023/07/25 07:37:46;;;;;;;3.92;0.75;;;;;;;-142.75;100.00;75712.13;5067845;28;20024;-67
2023/07/25 07:40:12;;;;;;;3.03;0.70;;;;;;;-142.75;100.00;75696.38;5067423;28;20031;-68
2023/07/25 07:42:37;;;;;;;2.88;0.82;;;;;;;-142.75;100.00;75698.34;5067659;28;20070;-68
2023/07/25 07:45:03;;;;;;;7.28;0.68;;;;;;;-142.75;100.00;75775.09;5067903;28;20024;-67
2023/07/25 07:47:28;;;;;;;2.50;0.60;;;;;;;-142.75;100.00;75773.13;5067754;28;20047;-67
2023/07/25 07:49:53;;;;;;;4.57;0.93;;;;;;;-142.75;100.00;75739.69;5068678;28;20023;-67
2023/07/25 07:52:19;;;;;;;3.17;0.57;;;;;;;-142.75;100.00;75698.34;5067685;28;20119;-68
2023/07/25 07:54:44;;;;;;;6.68;0.73;;;;;;;-142.75;100.00;75676.69;5067677;28;20024;-67
2023/07/25 07:57:09;;;;;;;5.70;0.70;;;;;;;-142.75;100.00;75657.03;5070565;28;20071;-67
2023/07/25 07:59:35;;;;;;;2.67;0.50;;;;;;;-142.75;100.00;75619.63;5071252;28;20082;-65
2023/07/25 08:02:00;;;;;;;5.97;0.57;;;;;;;-142.75;100.00;75623.56;5071066;28;20078;-67
2023/07/25 08:04:25;;;;;;;5.28;0.70;;;;;;;-142.75;100.00;75660.97;5071287;28;20074;-67
2023/07/25 08:06:51;;;;;;;2.70;1.13;;;;;;;-142.75;100.00;75664.91;5071122;28;20496;-67
2023/07/25 08:09:16;;;;;;;3.00;0.40;;;;;;;-142.75;100.00;75733.78;5071132;28;20412;-66
2023/07/25 08:11:41;;;;;;;3.00;0.60;;;;;;;-142.75;100.00;75720.00;5084545;28;20032;-67
2023/07/25 08:14:07;;;;;;;5.28;0.80;;;;;;;-142.75;100.00;75721.97;5091096;28;20395;-67
2023/07/25 08:16:32;;;;;;;2.95;0.70;;;;;;;-142.75;100.00;75757.41;5091249;28;20032;-67
2023/07/25 08:18:58;;;;;;;3.35;0.93;;;;;;;-142.75;100.00;75796.75;5090949;28;20047;-66
2023/07/25 08:21:23;;;;;;;2.78;0.70;;;;;;;-142.75;100.00;75794.78;5090770;28;20032;-66
2023/07/25 08:23:48;;;;;;;3.92;0.50;;;;;;;-142.75;100.00;75777.06;5079563;28;20055;-67
2023/07/25 08:26:14;;;;;;;2.45;0.75;;;;;;;-142.75;100.00;75727.88;5070704;28;20068;-67
2023/07/25 08:28:40;;;;;;;2.85;0.47;;;;;;;-142.75;100.00;75729.84;5070577;28;20112;-67
2023/07/25 08:31:06;;;;;;;1.10;0.50;;;;;;;-142.75;100.00;75769.19;5070403;28;20025;-67
2023/07/25 08:33:32;;;;;;;6.35;0.60;;;;;;;-142.75;100.00;75781.00;5072603;28;20033;-67
2023/07/25 08:35:57;;;;;;;3.20;0.80;;;;;;;-142.75;100.00;75775.09;5072783;28;20549;-67
2023/07/25 08:38:23;;;;;;;4.22;0.50;;;;;;;-142.75;100.00;75737.72;5071649;28;20040;-64
2023/07/25 08:41:04;;;;;;;2.33;0.60;;;;;;;-142.75;100.00;75716.06;5074485;28;20070;-66
2023/07/25 08:43:35;;;;;;;2.80;0.63;;;;;;;-142.75;100.00;75668.84;5081658;28;20496;-67
2023/07/25 08:46:08;;;;;;;3.95;0.50;;;;;;;-142.75;100.00;75639.31;5077798;28;20509;-67
2023/07/25 08:48:38;;;;;;;6.35;0.57;;;;;;;-142.75;99.00;75609.78;5070990;28;20025;-67
2023/07/25 08:51:13;;;;;;;2.88;0.70;;;;;;;-142.75;100.00;75617.66;5069452;28;20042;-66
2023/07/25 08:53:46;;;;;;;2.60;0.40;;;;;;;-142.75;100.00;75550.75;5070458;28;20031;-67
2023/07/25 08:56:13;;;;;;;5.07;0.47;;;;;;;-142.75;93.34;75546.81;5070234;28;20115;-67
2023/07/25 08:58:42;;;;;;;2.55;0.60;;;;;;;-142.75;94.80;75497.63;5069968;28;20038;-67
2023/07/25 09:01:09;;;;;;;5.15;0.47;;;;;;;-142.75;92.95;75472.03;5069857;28;20025;-66
2023/07/25 09:03:35;;;;;;;2.25;0.30;;;;;;;-142.75;91.45;75470.06;5070044;28;20028;-67
2023/07/25 09:06:01;;;;;;;1.15;0.40;;;;;;;-142.75;92.45;75574.38;5076740;28;20499;-67
2023/07/25 09:08:27;;;;;;;2.35;0.50;;;;;;;-142.75;89.34;75594.06;5074642;28;20028;-67
2023/07/25 09:10:53;;;;;;;2.72;0.40;;;;;;;-142.75;92.39;75684.56;5069714;28;20071;-67
2023/07/25 09:13:19;;;;;;;3.92;0.73;;;;;;;-142.75;94.89;75653.09;5070336;28;20094;-67
2023/07/25 09:15:44;;;;;;;3.75;0.82;;;;;;;-142.75;92.16;75613.72;5072082;28;20032;-67
2023/07/25 09:18:10;;;;;;;4.13;0.65;;;;;;;-142.75;94.46;75568.47;5087879;28;20028;-67
2023/07/25 09:20:36;;;;;;;2.00;0.50;;;;;;;-142.75;91.15;75527.13;5089555;28;20454;-67
2023/07/25 09:23:03;;;;;;;1.65;0.40;;;;;;;-142.75;90.31;75519.25;5084305;28;20034;-67
2023/07/25 09:25:28;;;;;;;3.92;0.57;;;;;;;-142.75;86.26;75466.13;5069660;28;20020;-66
2023/07/25 09:27:54;;;;;;;4.13;0.50;;;;;;;-142.75;84.13;75501.56;5069490;28;20194;-67
2023/07/25 09:30:19;;;;;;;2.40;0.30;;;;;;;-142.75;86.95;75519.25;5071195;28;20447;-67
2023/07/25 09:32:48;;;;;;;1.70;0.50;;;;;;;-142.75;86.01;75568.47;5070104;28;20016;-67
2023/07/25 09:35:13;;;;;;;3.03;0.50;;;;;;;-142.75;84.82;75629.47;5069298;28;20123;-66
2023/07/25 09:37:39;;;;;;;1.77;0.55;;;;;;;-142.75;89.95;75651.13;5069409;28;20115;-67
2023/07/25 09:40:11;;;;;;;1.48;0.40;;;;;;;-142.75;89.55;75653.09;5069225;28;20024;-68
2023/07/25 09:42:41;;;;;;;1.05;0.38;;;;;;;-142.75;90.91;75686.53;5069229;28;20086;-67
2023/07/25 09:45:11;;;;;;;2.13;0.50;;;;;;;-142.75;89.33;75706.22;5069148;28;20050;-67
2023/07/25 09:47:37;;;;;;;2.10;0.40;;;;;;;-142.75;92.25;75716.06;5068958;28;20032;-66
2023/07/25 09:50:06;;;;;;;7.35;0.95;;;;;;;-142.75;92.44;75686.53;5069299;28;20024;-68
2023/07/25 09:52:42;;;;;;;2.45;0.60;;;;;;;-142.75;90.24;75676.69;5069630;28;20059;-66
2023/07/25 09:55:08;;;;;;;;;;;;;;;-142.75;91.41;75680.63;5069534;28;20029;-66
2023/07/25 09:57:34;;;;;;;2.60;0.43;;;;;;;-142.75;88.88;75659.00;5069052;28;20010;-66
2023/07/25 10:00:01;;;;;;;3.22;0.60;;;;;;;-142.75;96.52;75615.69;5068448;28;20502;-67
2023/07/25 10:02:28;;;;;;;2.42;0.55;;;;;;;-142.75;92.71;75554.69;5068879;28;20034;-66
2023/07/25 10:04:58;;;;;;;1.70;0.57;;;;;;;-142.75;94.15;75556.66;5068100;28;20090;-66
2023/07/25 10:07:25;;;;;;;1.20;0.40;;;;;;;-142.75;88.08;75605.84;5068028;28;20435;-67
2023/07/25 10:09:51;;;;;;;2.13;0.50;;;;;;;-142.75;86.66;75617.66;5087120;28;20043;-67
2023/07/25 10:12:17;;;;;;;3.55;0.43;;;;;;;-142.75;90.70;75633.41;5085703;28;20077;-66
2023/07/25 10:14:42;;;;;;;1.50;0.38;;;;;;;-142.75;84.45;75629.47;5079979;28;20024;-67
2023/07/25 10:17:08;;;;;;;4.20;0.47;;;;;;;-142.75;85.28;75694.41;5075847;28;20019;-66
2023/07/25 10:19:48;;;;;;;1.48;0.40;;;;;;;-142.75;89.55;75706.22;5067718;28;20108;-67
2023/07/25 10:22:14;;;;;;;3.03;0.60;;;;;;;-142.75;93.09;75753.47;5071082;28;20110;-67
2023/07/25 10:24:39;;;;;;;2.15;0.40;;;;;;;-142.75;95.10;75759.38;5070882;28;20107;-66
2023/07/25 10:27:11;;;;;;;2.38;0.68;;;;;;;-142.75;92.55;75773.13;5085444;28;20027;-67
2023/07/25 10:29:45;;;;;;;4.00;0.40;;;;;;;-142.75;94.87;75792.81;5076999;28;20020;-67
2023/07/25 10:32:16;;;;;;;0.93;0.30;;;;;;;-142.75;94.78;75784.94;5070029;28;20475;-66
2023/07/25 10:35:00;;;;;;;1.98;0.45;;;;;;;-142.75;94.12;75816.44;5068985;28;20028;-66
2023/07/25 10:37:30;;;;;;;3.45;0.40;;;;;;;-142.75;95.68;75782.97;5067838;28;20104;-66
2023/07/25 10:40:12;;;;;;;1.38;0.20;;;;;;;-142.75;98.30;75761.34;5067543;28;20021;-66
2023/07/25 10:42:46;;;;;;;2.15;0.68;;;;;;;-142.75;98.91;75765.25;5067803;28;20395;-67
2023/07/25 10:45:27;;;;;;;1.52;0.50;;;;;;;-142.75;99.76;75712.13;5067539;28;20029;-66
2023/07/25 10:47:52;;;;;;;4.53;0.30;;;;;;;-142.75;96.76;75653.09;5067650;28;20032;-67
2023/07/25 10:50:19;;;;;;;1.70;0.30;;;;;;;-142.75;94.42;75609.78;5066052;28;20020;-67
2023/07/25 10:52:46;;;;;;;4.50;0.60;;;;;;;-142.75;90.88;75552.72;5085010;28;20107;-68
2023/07/25 10:55:12;;;;;;;2.38;0.30;;;;;;;-142.75;87.55;75515.31;5087962;28;20024;-67
2023/07/25 10:57:38;;;;;;;1.42;0.30;;;;;;;-142.75;87.64;75472.03;5087823;28;20012;-67
2023/07/25 11:00:13;;;;;;;3.53;0.50;;;;;;;-142.75;85.15;75452.34;5088314;28;20038;-67
2023/07/25 11:02:43;;;;;;;2.45;0.40;;;;;;;-142.75;80.05;75409.06;5087634;28;20511;-68
2023/07/25 11:05:11;;;;;;;2.33;0.50;;;;;;;-142.75;80.84;75385.44;5087926;28;20040;-67
2023/07/25 11:07:37;;;;;;;1.85;0.38;;;;;;;-142.75;75.70;75393.31;5087640;28;20016;-67